Weather at Bill & Hillary Clinton National Airport/Adams Field

Public forecast

Using degrees Fahrenheit for public forecast. Weather courtesy of forecast.io.

Current aviation weather report (METAR) for Bill & Hillary Clinton National Airport/Adams Field

Retrieved 2021/09/25 23:53 UTC (41 minutes ago):

KLIT 252353Z 36004KT 10SM FEW005 FEW250 24/11 A3005 RMK AO2 SLP177 FU FEW005 T02440106 10300 20244 55001

Aviation forecast (TAF) for Bill & Hillary Clinton National Airport/Adams Field

Retrieved 2021-09-26 00:40 UTC (0 seconds ago):

TAF KLIT 252337Z 2600/2624 02003KT P6SM SKC FM261500 19008KT P6SM SKC